Date,TemperatureHighF,TemperatureAvgF,TemperatureLowF,DewpointHighF,DewpointAvgF,DewpointLowF,HumidityHigh,HumidityAvg,HumidityLow,PressureMaxIn,PressureMinIn,WindSpeedMaxMPH,WindSpeedAvgMPH,GustSpeedMaxMPH,PrecipitationSumIn
2014-2-1,32.9,24.7,12.6,23.9,18.0,8.1,89,76,51,30.22,29.84,13,0,13,0.00
2014-2-2,37.1,26.3,12.8,16.9,12.6,7.1,85,58,31,30.33,30.02,17,1,17,0.00
2014-2-3,28.9,25.1,19.6,22.0,18.5,14.1,89,76,58,30.02,29.93,11,1,11,0.00
2014-2-4,34.2,25.7,19.1,20.7,14.6,7.0,90,65,35,30.19,29.99,26,3,26,0.00
2014-2-5,35.8,25.0,12.8,19.3,13.6,7.9,82,63,38,30.29,30.10,12,0,12,0.00
2014-2-6,33.0,26.2,17.7,26.8,21.6,12.6,92,83,61,30.18,29.98,16,2,16,0.00
2014-2-7,34.2,29.8,28.0,29.7,27.0,25.5,92,89,81,30.22,29.98,17,2,17,0.00
2014-2-8,49.3,37.3,28.4,33.3,29.8,25.5,93,76,50,30.32,30.12,15,2,15,0.00
2014-2-9,53.4,40.7,30.2,33.9,30.6,27.0,91,69,41,30.18,29.99,20,2,20,0.00
2014-2-10,49.7,42.1,29.0,30.2,25.2,19.4,78,52,36,30.12,29.97,14,1,16,0.00
2014-2-11,47.5,36.2,24.9,24.4,18.0,8.6,80,50,25,30.24,30.10,11,1,12,0.00
2014-2-12,52.5,37.9,22.9,21.5,16.0,5.4,70,45,17,30.37,30.15,16,1,16,0.00
2014-2-13,60.7,44.2,26.5,24.8,18.0,12.3,75,40,16,30.31,29.97,10,1,14,0.00
2014-2-14,61.7,44.1,28.6,26.1,20.5,14.9,70,42,18,30.28,30.01,13,0,13,0.00
2014-2-15,62.0,47.5,35.1,18.7,14.4,8.1,48,28,13,30.20,29.95,14,0,17,0.00
2014-2-16,60.4,48.9,31.1,21.2,14.4,9.9,49,25,15,30.17,29.86,24,3,24,0.00
2014-2-17,60.6,43.3,24.4,19.2,12.7,1.1,68,35,10,30.27,29.93,19,2,19,0.00
2014-2-18,56.9,45.2,30.8,24.2,16.8,1.9,63,35,13,30.11,29.92,13,0,13,0.00
2014-2-19,57.5,42.7,29.6,14.3,8.6,-2.1,51,26,9,29.95,29.65,34,3,34,0.00
2014-2-20,41.8,33.3,22.1,8.2,4.1,-1.3,47,30,19,30.34,29.84,21,1,21,0.00
2014-2-21,51.0,36.2,20.1,15.2,9.6,0.8,55,35,21,30.32,29.95,14,0,14,0.00
2014-2-22,54.4,40.4,23.5,16.4,13.7,10.6,62,36,21,30.07,29.91,14,1,14,0.00
2014-2-23,56.4,40.5,24.4,15.7,12.3,4.3,64,35,16,30.16,29.98,12,0,12,0.00
2014-2-24,56.8,40.5,25.0,17.2,14.5,11.7,64,37,19,30.20,30.01,11,0,11,0.00
2014-2-25,55.5,41.2,23.7,20.9,14.0,7.6,69,37,16,30.21,29.92,11,0,11,0.00
2014-2-26,57.8,43.8,28.0,31.8,21.7,13.6,73,45,22,30.10,29.86,17,1,17,0.00
2014-2-27,50.9,41.3,36.0,32.0,26.5,11.5,79,58,27,29.89,29.67,40,5,40,0.00
2014-2-28,47.9,40.0,33.3,39.0,32.6,11.2,92,76,35,29.98,29.65,16,4,27,0.10